createdAt,value
2022-11-26T09:57:41.419Z,10.10
2022-11-26T10:00:39.633Z,13.40
2022-11-26T10:03:21.732Z,11.80
2022-11-26T10:06:07.883Z,12.30
2022-11-26T10:08:52.256Z,11.20
2022-11-26T10:11:58.560Z,13.10
2022-11-26T10:15:19.941Z,12.30
2022-11-26T10:18:13.692Z,12.90
2022-11-26T10:21:37.871Z,13.80
2022-11-26T10:24:32.482Z,14.50
2022-11-26T10:27:24.693Z,13.30
2022-11-26T10:30:10.652Z,12.50
2022-11-26T10:32:44.407Z,12.00
2022-11-26T10:35:30.081Z,11.80
2022-11-26T10:37:59.588Z,8.70
2022-11-26T10:40:31.408Z,12.50
2022-11-26T10:43:09.309Z,11.30
2022-11-26T10:45:54.387Z,12.20
2022-11-26T10:48:35.474Z,12.70
2022-11-26T10:51:17.602Z,13.00
2022-11-26T10:53:59.303Z,9.00
2022-11-26T10:56:53.424Z,12.90
2022-11-26T10:59:38.312Z,12.70
2022-11-26T11:02:39.349Z,14.20
2022-11-26T11:05:10.299Z,12.60
2022-11-26T11:07:38.986Z,8.80
2022-11-26T11:10:11.850Z,13.60
2022-11-26T11:12:42.831Z,10.60
2022-11-26T11:15:23.506Z,11.90
2022-11-26T11:17:55.219Z,12.00
2022-11-26T11:20:29.497Z,9.20
2022-11-26T11:23:12.457Z,12.30
2022-11-26T11:25:47.474Z,11.90
2022-11-26T11:28:23.045Z,11.00
2022-11-26T11:31:24.593Z,10.10
2022-11-26T11:34:20.647Z,13.50
2022-11-26T11:37:05.815Z,13.90
2022-11-26T11:39:36.173Z,14.00
2022-11-26T11:42:21.294Z,7.90
2022-11-26T16:06:38.372Z,19.70
2022-11-26T16:26:18.822Z,22.40
2022-11-26T16:28:48.164Z,21.00
2022-11-26T16:31:17.370Z,19.50
2022-11-26T16:33:45.433Z,21.90
2022-11-26T16:36:33.631Z,21.80
2022-11-26T16:39:12.320Z,22.20
2022-11-26T16:41:51.603Z,21.50
2022-11-26T16:44:42.111Z,17.70
2022-11-26T16:47:41.075Z,19.80
2022-11-26T16:50:47.935Z,19.60
2022-11-26T16:53:17.695Z,18.70
2022-11-26T16:55:55.461Z,12.50
2022-11-26T16:58:48.061Z,17.00
2022-11-26T17:01:17.420Z,18.20
2022-11-26T17:03:46.079Z,13.70
2022-11-26T17:06:46.142Z,19.60
2022-11-26T17:09:20.646Z,18.90
2022-11-26T17:11:49.608Z,19.50
2022-11-26T17:14:19.787Z,19.40
2022-11-26T17:19:47.944Z,19.80
2022-11-26T17:22:21.564Z,19.30
2022-11-26T17:24:55.519Z,18.60
2022-11-26T17:27:25.083Z,19.20
2022-11-26T17:30:06.991Z,20.70
2022-11-26T17:35:51.895Z,19.40
2022-11-26T17:38:22.998Z,19.60
2022-11-26T17:40:58.199Z,16.40
2022-11-26T17:43:46.935Z,17.80
2022-11-26T17:46:25.666Z,21.50
2022-11-26T17:48:59.585Z,19.80
2022-11-26T17:51:37.180Z,19.40
2022-11-26T17:54:06.398Z,19.20
2022-11-26T17:56:35.502Z,19.70
2022-11-26T17:59:04.482Z,19.30
2022-11-26T18:01:33.613Z,18.90
2022-11-26T18:04:03.139Z,19.10
2022-11-26T18:07:22.338Z,17.30
2022-11-26T18:09:59.393Z,19.30
2022-11-26T18:12:29.350Z,17.20
2022-11-26T18:14:59.061Z,19.60
2022-11-26T18:17:28.801Z,13.50
2022-11-26T18:20:01.423Z,18.70
2022-11-26T18:33:39.396Z,21.20
2022-11-26T18:36:07.752Z,20.10
2022-11-26T18:38:41.442Z,20.50
2022-11-26T18:41:29.850Z,20.00
2022-11-26T18:43:58.170Z,18.70
2022-11-26T18:46:25.838Z,18.90
2022-11-26T18:48:57.019Z,18.90
2022-11-26T18:51:24.819Z,21.10
2022-11-26T18:53:52.673Z,18.90
2022-11-26T18:56:25.213Z,18.10
2022-11-26T18:58:52.712Z,16.80
2022-11-26T19:01:30.708Z,19.50
2022-11-26T19:04:04.298Z,17.30
2022-11-26T19:06:33.279Z,16.30
2022-11-26T19:09:10.971Z,16.00
2022-11-26T19:11:39.622Z,17.40
2022-11-26T19:14:15.826Z,18.10
2022-11-26T19:16:53.871Z,13.90
2022-11-26T19:19:32.668Z,18.60
2022-11-26T19:22:02.317Z,17.60
2022-11-26T19:24:30.465Z,17.60
2022-11-26T19:26:58.584Z,17.60
2022-11-26T19:29:45.177Z,17.60
2022-11-26T19:32:29.800Z,17.50
2022-11-26T19:35:06.559Z,17.50
2022-11-26T19:37:36.895Z,17.50
2022-11-26T19:40:06.570Z,12.40
2022-11-26T19:42:36.685Z,18.20
2022-11-26T19:45:08.786Z,20.20
2022-11-26T19:47:42.257Z,23.80
2022-11-26T19:50:13.724Z,21.20
2022-11-26T19:52:46.473Z,20.90
2022-11-26T19:55:16.618Z,19.70
2022-11-26T19:57:51.629Z,19.30
2022-11-26T20:00:20.912Z,18.10
2022-11-26T20:02:51.877Z,18.30
2022-11-26T20:05:23.457Z,18.50
2022-11-26T20:07:55.786Z,18.20
2022-11-26T20:10:51.151Z,18.60
2022-11-26T20:13:22.322Z,18.80
2022-11-26T20:19:04.013Z,17.00
2022-11-26T20:25:09.600Z,19.00
2022-11-26T20:41:29.239Z,19.40
2022-11-26T20:43:59.653Z,18.00
2022-11-26T20:46:29.047Z,22.90
2022-11-26T20:49:00.752Z,19.70
2022-11-26T20:51:29.583Z,21.10
2022-11-26T20:54:07.844Z,17.10
2022-11-26T20:56:40.319Z,18.50
2022-11-26T20:59:12.416Z,19.00
2022-11-26T21:01:48.877Z,18.30
2022-11-26T21:04:20.191Z,18.00
2022-11-26T21:06:49.358Z,20.10
2022-11-26T21:09:18.526Z,22.00
2022-11-26T21:11:47.746Z,21.70
2022-11-26T21:14:17.344Z,16.40
2022-11-26T21:16:51.758Z,16.50
2022-11-26T21:19:21.262Z,19.10
2022-11-26T21:21:56.554Z,18.20
2022-11-26T21:24:27.146Z,17.90
2022-11-26T21:26:56.293Z,13.40
2022-11-26T21:29:25.122Z,17.00
2022-11-26T21:32:05.658Z,17.50
2022-11-26T21:34:37.216Z,16.80
2022-11-26T21:37:09.681Z,17.70
2022-11-26T21:39:39.934Z,18.30
2022-11-26T22:04:32.598Z,20.30
2022-11-26T22:07:06.292Z,19.60
2022-11-26T22:09:37.202Z,17.50
2022-11-26T22:12:07.855Z,18.40
2022-11-26T22:14:49.672Z,18.70
2022-11-26T22:17:23.835Z,18.50
2022-11-26T22:19:51.304Z,18.10
2022-11-26T22:22:22.099Z,17.60
2022-11-26T22:24:49.802Z,18.10
2022-11-26T22:27:22.300Z,18.00
2022-11-26T22:29:55.648Z,18.30
2022-11-26T22:32:23.950Z,18.40
2022-11-26T22:34:54.457Z,19.00
2022-11-26T22:37:24.585Z,18.80
2022-11-26T22:39:54.609Z,18.90
2022-11-26T22:42:22.795Z,19.70
2022-11-26T22:44:53.263Z,19.30
2022-11-26T22:47:20.927Z,18.80
